Hauptseite
METAR-TAF:

METAR-TAF

Flughäfen :

Flugplatz Schwäbisch Hall-Hessental (Adolf Würth Airport)

Schwäbisch Hall, Deutschland

Breite: 49-07-06N, Länge: 9-47-02E, Höhe: 398 m

Beobachtung

Neuester Wetterbericht von vor 29 Minuten, um 18:50 UTC
Wind 3 kt aus West
Temperatur 8°C
Luftfeuchtigkeit 61%
Luftdruck 1018 hPa
Sichtweite 10 km oder mehr

METAR: EDTY 031850Z AUTO 28003KT 9999 // OVC066/// 08/01 Q1018

Zeit: 21:19 (19:19 UTC)

Prognose

Neuester Wetterbericht von vor 5 Stunden und 19 Minuten, um 14:00 UTC
Gültige Prognose vom 03 um 15 UTC bis 03 um 24 UTC
Wind 10 kt aus West/Südwest
Sichtweite 10 km oder mehr
Aufgelockert bewölkt in der Höhe von 4500 ft
Übergehend zu
vom 03 um 16 UTC bis 03 um 18 UTC
Wind 3 kt aus West

TAF: EDTY 031400Z 0315/0324 24010KT 9999 SCT045 BECMG 0316/0318 27003KT

Wetterbeobachtungen und Prognosen von mehr als 4000 Flughäfen (METAR und TAF Bericht).

Die verfügbaren Stationen werden durch gelbe und rote Markierungen auf der Karte dargestellt.

Führen Sie die Maus auf sie, um den Namen der Station zu sehen.

Darauf klicken, um die Beobachtung von Wetterbeobachtungen und Prognosen zu sehen.

Um die Karte zu ändern : klicken Sie auf den grünen Tasten mit einem schwarzen Kreuz Zum Vergrößern, auf den grünen Button mit einem Gedankenstrich zu verkleinern, oder auf die grünen Pfeile für benachbarte Karten.


METAR-TAF: